Mount Pearl, Canada
Current Conditions -  °F | °C
As of 9:00 PM on Friday 21 Nov 2014 (Local Time) from CYYT Reporting Station
Overcast Overcast  
Wind Chill: 24°   Ceiling: 3000
Heat Index: 34°   Visibility: 15mi
Dew Point: 27°   Wind: 14mph
Humidity: 75%   Direction: 260°W
Pressure: 29.46"   Gusts: 25mph
Location:  47.52°N, 52.82°W
Report Text: CYYT 220000Z 26012G22KT 15SM BKN030 OVC110 01/M03 A2946 RMK SC5AC3 SLP981
Loading
Personal Weather Stations






























Interactive Weather Map New forecast layout! Learn more

10-Day Weather Forecast

Advertisements
Track Severe Weather on mobile